logo
Search for airport 
image banner adimage banner adimage banner ad
image banner ad

FASP - Singita Sabie Sand

Located in , South Africa

ICAO - , IATA -

Data provided by Airmate  

General information

Coordinates: S24°48'10" E31°25'21"
Elevation is 1358 feet MSL.
Magnetic variation is -19° East
Rated:
View ratings:
[VIEW]
View others Airports in Limpopo

Operational data

Special qualification required
Current time UTC:
Current local time:
METAR: FAKN 220900Z AUTO 36004KT //// // ////// 21/11 Q1029
TAF: TAF FAKN 220600Z 2207/2218 VRB03KT 9999 SCT030 TX22/2213Z TN17/2218Z
View NOTAMs / SUP AIP / TFR affecting this airport [VIEW]
Communications frequencies: [VIEW]

Runways:

RWY identifierQFULength (ft)Width (ft)SurfaceLDA (ft)
01356°419141ASPH
19176°419141ASPH

Airport contact information

Address: South Africa

Satellite view of FASP